Etusivu
METAR-TAF:

METAR-TAF

Lentoasemat :

Morrisville-Stowe State Airport

Morrisville, Vermont, Yhdysvallat

Leveyspiiri: 44-32-10N, Pituuspiiri: 072-36-58W, korkeus merenpinnasta: 223 m

Tämänhetkinen sää

Tämä raportti tehtiin 36 minuuttia sitten, kello 13.54 UTC
Tuuli 9 kn lännestä/luoteesta puuskistuen 16 kn:hen, vaihdellen lännen/lounaan ja pohjoisen/koillisen välillä
Lämpötila 8°C
Kosteus 66%
Ilmanpaine 1010 hPa
Näkyvyys: 16.1 km
Pilvistä 2900 ft:n korkeudessa

METAR: KMVL 211354Z AUTO 29009G16KT 240V020 10SM OVC029 08/02 A2982 RMK AO2 SLP101 T00830017

Aika: 10:30 (14:30 UTC)


TAF: puuttuu

Säähavainnot ja -ennusteet yli 4000 lentoasemalta (METAR- ja TAF-raportit).

Käytössä olevat sääasemat on merkitty karttaan keltaisilla ja punaisilla pisteillä.

Aseta hiiri pisteen päälle nähdäksesi sääaseman nimen.

Klikkaa sitten nähdäksesi säähavainnot ja -ennusteet.

Kartan vaihtaminen: klikkaa mustalla rastilla varustettuja vihreitä pisteitä, niin voit zoomata sisään; viivalla varustettua vihreää pistettä, niin voit zoomata ulos tai vihreitä nuolia, niin pääset viereisille kartoille.


METAR-TAF: